Time;durP1;ratioP1;P1;durP2;ratioP2;P2;SDS_P1;SDS_P2;PMS_P1;PMS_P2;Temp;Humidity;BMP_temperature;BMP_pressure;BME280_temperature;BME280_humidity;BME280_pressure;Samples;Min_cycle;Max_cycle;Signal;HPM_P1;HPM_P2
2023/04/04 00:00:25;;;;;;;5.93;3.77;;;0.60;1.00;;;;;;5096372;28;20439;-43
2023/04/04 00:02:50;;;;;;;3.43;2.73;;;0.60;1.00;;;;;;5095046;28;20571;-42
2023/04/04 00:05:16;;;;;;;6.30;2.83;;;0.60;1.00;;;;;;5095239;28;20212;-43
2023/04/04 00:07:45;;;;;;;5.57;3.50;;;0.50;1.00;;;;;;5095469;28;20184;-45
2023/04/04 00:10:11;;;;;;;4.70;3.10;;;0.50;1.00;;;;;;5096387;28;20250;-44
2023/04/04 00:12:37;;;;;;;3.50;3.20;;;0.50;1.00;;;;;;5096009;28;20847;-44
2023/04/04 00:15:03;;;;;;;3.60;3.00;;;0.50;1.00;;;;;;5093745;28;20563;-43
2023/04/04 00:17:28;;;;;;;5.60;3.23;;;0.50;1.00;;;;;;5093811;28;20267;-44
2023/04/04 00:19:56;;;;;;;3.33;3.03;;;0.50;1.00;;;;;;5095766;28;20516;-42
2023/04/04 00:22:21;;;;;;;4.00;3.27;;;0.40;1.00;;;;;;5095998;28;20211;-43
2023/04/04 00:24:47;;;;;;;4.17;3.57;;;0.50;1.00;;;;;;5096963;28;20516;-42
2023/04/04 00:27:13;;;;;;;5.23;3.73;;;0.50;1.00;;;;;;5096350;28;20176;-44
2023/04/04 00:29:39;;;;;;;4.67;3.00;;;0.50;1.00;;;;;;5096059;28;20485;-43
2023/04/04 00:32:04;;;;;;;8.67;3.10;;;0.50;1.00;;;;;;5095765;28;20358;-42
2023/04/04 00:34:30;;;;;;;3.90;3.13;;;0.40;1.00;;;;;;5096299;28;20346;-43
2023/04/04 00:36:56;;;;;;;3.90;3.50;;;0.40;1.00;;;;;;5096968;28;20183;-44
2023/04/04 00:39:22;;;;;;;5.47;3.90;;;0.40;1.00;;;;;;5096410;28;20181;-43
2023/04/04 00:41:48;;;;;;;4.83;3.27;;;0.30;1.00;;;;;;5096400;28;20239;-42
2023/04/04 00:44:14;;;;;;;5.03;3.60;;;0.40;1.00;;;;;;5096290;28;20492;-42
2023/04/04 00:46:40;;;;;;;5.30;3.30;;;0.40;1.00;;;;;;5096267;28;20418;-45
2023/04/04 00:49:05;;;;;;;4.37;3.50;;;0.30;1.00;;;;;;5096645;28;20422;-44
2023/04/04 00:51:31;;;;;;;3.63;3.33;;;0.30;1.00;;;;;;5095802;28;20279;-43
2023/04/04 00:53:57;;;;;;;3.50;3.20;;;0.30;1.00;;;;;;5096102;28;20177;-44
2023/04/04 00:56:24;;;;;;;4.53;3.10;;;0.30;1.00;;;;;;5096166;28;20176;-44
2023/04/04 00:58:49;;;;;;;6.03;3.20;;;0.20;1.00;;;;;;5096107;28;20460;-46
2023/04/04 01:01:15;;;;;;;4.30;3.70;;;0.20;1.00;;;;;;5096469;28;20410;-43
2023/04/04 01:03:41;;;;;;;4.70;3.40;;;0.10;1.00;;;;;;5094924;28;20253;-43
2023/04/04 01:06:07;;;;;;;4.27;3.23;;;0.10;1.00;;;;;;5096059;28;20406;-43
2023/04/04 01:08:35;;;;;;;3.37;3.07;;;0.10;1.00;;;;;;5096661;28;20648;-46
2023/04/04 01:11:01;;;;;;;4.03;3.60;;;0.10;1.00;;;;;;5096462;28;20418;-47
2023/04/04 01:13:27;;;;;;;4.10;3.50;;;0.20;99.90;;;;;;5096278;28;20426;-43
2023/04/04 01:15:53;;;;;;;3.17;2.87;;;0.10;99.90;;;;;;5096472;28;20411;-44
2023/04/04 01:18:20;;;;;;;6.07;3.30;;;0.20;99.90;;;;;;5096933;28;20414;-43
2023/04/04 01:21:09;;;;;;;4.00;2.87;;;0.10;99.90;;;;;;5095634;28;20172;-43
2023/04/04 01:23:55;;;;;;;3.20;2.73;;;0.10;99.90;;;;;;5096225;28;20497;-44
2023/04/04 01:26:22;;;;;;;4.73;3.30;;;0.10;99.90;;;;;;5088495;28;20426;-45
2023/04/04 01:28:48;;;;;;;6.13;3.33;;;0.10;99.90;;;;;;5096194;28;20862;-43
2023/04/04 01:31:18;;;;;;;4.30;3.40;;;0.10;99.90;;;;;;5095356;28;20543;-42
2023/04/04 01:33:46;;;;;;;4.93;3.17;;;0.10;99.90;;;;;;5094924;28;20524;-42
2023/04/04 01:36:31;;;;;;;4.40;3.60;;;0.00;99.90;;;;;;5094737;28;20458;-44
2023/04/04 01:39:22;;;;;;;3.87;3.47;;;0.00;99.90;;;;;;5093856;28;20860;-44
2023/04/04 01:41:48;;;;;;;5.63;4.33;;;0.00;99.90;;;;;;5095151;28;20466;-42
2023/04/04 01:44:16;;;;;;;4.20;3.63;;;-0.10;99.90;;;;;;5095341;28;20415;-45
2023/04/04 01:46:42;;;;;;;5.50;3.77;;;-0.10;99.90;;;;;;5094828;28;20192;-43
2023/04/04 01:49:07;;;;;;;2.97;2.40;;;0.00;99.90;;;;;;5095055;28;20430;-42
2023/04/04 01:51:33;;;;;;;3.97;3.23;;;0.00;1.00;;;;;;5095231;28;20203;-44
2023/04/04 01:53:58;;;;;;;4.57;3.30;;;0.00;1.00;;;;;;5096018;28;20216;-44
2023/04/04 01:56:24;;;;;;;3.97;3.07;;;0.10;1.00;;;;;;5095875;28;20267;-43
2023/04/04 01:58:51;;;;;;;5.23;3.30;;;0.00;1.00;;;;;;5095969;28;20248;-42
2023/04/04 02:01:16;;;;;;;3.40;2.70;;;-0.10;1.00;;;;;;5095045;28;20181;-45
2023/04/04 02:03:42;;;;;;;3.00;2.70;;;-0.10;1.00;;;;;;5095818;28;20426;-43
2023/04/04 02:06:08;;;;;;;3.53;3.23;;;-0.10;1.00;;;;;;5095644;28;20574;-44
2023/04/04 02:08:33;;;;;;;5.13;3.43;;;-0.10;1.00;;;;;;5099717;28;20187;-45
2023/04/04 02:10:59;;;;;;;3.20;2.90;;;-0.10;1.00;;;;;;5098919;28;20263;-46
2023/04/04 02:13:25;;;;;;;4.80;3.47;;;-0.20;1.00;;;;;;5099263;28;20184;-43
2023/04/04 02:15:51;;;;;;;4.50;3.50;;;-0.20;1.00;;;;;;5099862;28;20179;-41
2023/04/04 02:18:17;;;;;;;5.80;3.60;;;-0.10;1.00;;;;;;5099223;28;20180;-43
2023/04/04 02:20:42;;;;;;;4.20;3.10;;;-0.20;1.00;;;;;;5099342;28;20457;-43
2023/04/04 02:23:08;;;;;;;4.00;3.60;;;-0.20;1.00;;;;;;5099632;28;20493;-43
2023/04/04 02:25:34;;;;;;;5.03;3.00;;;-0.10;1.00;;;;;;5096898;28;20267;-45
2023/04/04 02:27:59;;;;;;;4.33;3.20;;;-0.10;1.00;;;;;;5095168;28;20191;-45
2023/04/04 02:30:25;;;;;;;3.80;2.73;;;-0.20;1.00;;;;;;5094391;28;20313;-42
2023/04/04 02:32:51;;;;;;;5.90;3.63;;;-0.20;1.00;;;;;;5094906;28;20549;-45
2023/04/04 02:35:17;;;;;;;7.40;2.53;;;-0.20;1.00;;;;;;5094468;28;20533;-42
2023/04/04 02:37:45;;;;;;;4.83;3.47;;;-0.30;1.00;;;;;;5094920;28;20835;-42
2023/04/04 02:40:11;;;;;;;3.60;3.17;;;-0.30;1.00;;;;;;5096498;28;20268;-43
2023/04/04 02:42:36;;;;;;;5.80;3.50;;;-0.30;1.00;;;;;;5096839;28;20764;-43
2023/04/04 02:45:02;;;;;;;3.77;2.60;;;-0.50;1.00;;;;;;5095932;28;20517;-45
2023/04/04 02:47:28;;;;;;;4.23;3.40;;;-0.30;12.90;;;;;;5097921;28;20177;-44
2023/04/04 02:49:54;;;;;;;3.83;3.20;;;-0.30;1.00;;;;;;5098337;28;20260;-43
2023/04/04 02:52:21;;;;;;;5.20;3.40;;;-0.40;1.00;;;;;;5098912;28;20537;-46
2023/04/04 02:54:46;;;;;;;3.10;2.80;;;-0.30;5.80;;;;;;5098454;28;20196;-42
2023/04/04 02:57:12;;;;;;;4.23;3.13;;;-0.40;24.00;;;;;;5098110;28;20433;-44
2023/04/04 02:59:37;;;;;;;4.73;3.13;;;-0.40;48.00;;;;;;5097869;28;20267;-43
2023/04/04 03:02:03;;;;;;;5.30;3.70;;;-0.50;99.90;;;;;;5098211;28;20208;-45
2023/04/04 03:04:28;;;;;;;5.40;3.13;;;-0.50;99.90;;;;;;5099251;28;20192;-46
2023/04/04 03:06:54;;;;;;;4.80;3.50;;;-0.50;99.90;;;;;;5098028;28;20173;-41
2023/04/04 03:09:20;;;;;;;4.87;4.20;;;-0.60;99.90;;;;;;5097574;28;20245;-43
2023/04/04 03:11:45;;;;;;;5.43;3.13;;;-0.60;99.90;;;;;;5097780;28;20463;-42
2023/04/04 03:14:11;;;;;;;5.90;3.70;;;-0.60;99.90;;;;;;5097768;28;20234;-45
2023/04/04 03:16:37;;;;;;;11.60;3.50;;;-0.60;99.90;;;;;;5096796;28;20434;-44
2023/04/04 03:19:03;;;;;;;4.87;3.73;;;-0.60;1.00;;;;;;5079798;28;20172;-42
2023/04/04 03:21:28;;;;;;;4.20;3.70;;;-0.60;1.00;;;;;;5096238;28;20418;-43
2023/04/04 03:23:55;;;;;;;3.23;2.97;;;-0.70;1.00;;;;;;5097039;28;20225;-43
2023/04/04 03:26:20;;;;;;;7.23;3.73;;;-0.70;1.00;;;;;;5095060;28;20299;-48
2023/04/04 03:28:46;;;;;;;5.83;4.10;;;-0.70;1.00;;;;;;5096449;28;20562;-43
2023/04/04 03:31:12;;;;;;;5.53;3.20;;;-0.80;1.00;;;;;;5096487;28;20233;-42
2023/04/04 03:33:38;;;;;;;4.37;3.47;;;-0.80;1.00;;;;;;5097516;28;20271;-44
2023/04/04 03:36:13;;;;;;;4.40;3.70;;;-0.80;1.00;;;;;;5097049;28;20570;-44
2023/04/04 03:38:39;;;;;;;5.77;3.80;;;-0.90;1.00;;;;;;5097216;28;20486;-48
2023/04/04 03:41:06;;;;;;;5.20;4.43;;;-0.90;1.00;;;;;;5095960;28;20423;-45
2023/04/04 03:43:32;;;;;;;5.90;3.77;;;-0.90;1.00;;;;;;5095686;28;20478;-42
2023/04/04 03:46:04;;;;;;;6.83;4.30;;;-0.90;1.00;;;;;;5096343;28;20624;-43
2023/04/04 03:48:30;;;;;;;5.33;3.37;;;-0.90;1.00;;;;;;5096564;28;20467;-46
2023/04/04 03:50:56;;;;;;;3.80;3.50;;;-0.90;1.00;;;;;;5096587;28;20419;-44
2023/04/04 03:53:23;;;;;;;6.03;3.90;;;-0.90;1.00;;;;;;5096167;28;20200;-46
2023/04/04 03:55:49;;;;;;;5.07;4.10;;;-0.90;1.00;;;;;;5095216;28;20427;-42
2023/04/04 03:58:15;;;;;;;5.60;4.00;;;-1.00;1.00;;;;;;5097119;28;20475;-43
2023/04/04 04:00:40;;;;;;;7.13;3.90;;;-1.00;1.00;;;;;;5096395;28;20259;-44
2023/04/04 04:03:06;;;;;;;9.63;3.73;;;-1.00;1.00;;;;;;5097168;28;20770;-44
2023/04/04 04:05:32;;;;;;;4.60;3.93;;;-1.10;1.00;;;;;;5095843;28;20177;-44
2023/04/04 04:07:57;;;;;;;4.30;3.90;;;-1.10;1.00;;;;;;5096446;28;20526;-45
2023/04/04 04:10:23;;;;;;;4.60;4.13;;;-1.10;1.00;;;;;;5095697;28;20263;-42
2023/04/04 04:12:49;;;;;;;4.27;3.70;;;-1.10;1.00;;;;;;5093623;28;20543;-42
2023/04/04 04:15:14;;;;;;;5.10;3.97;;;-1.10;1.00;;;;;;5094900;28;20569;-44
2023/04/04 04:17:40;;;;;;;6.07;4.10;;;-1.10;1.00;;;;;;5094758;28;20255;-43
2023/04/04 04:20:07;;;;;;;5.60;4.70;;;-1.20;1.00;;;;;;5093541;28;20180;-43
2023/04/04 04:22:33;;;;;;;4.63;4.07;;;-1.20;1.00;;;;;;5094365;28;20505;-42
2023/04/04 04:24:59;;;;;;;5.13;4.30;;;-1.20;1.00;;;;;;5094328;28;20449;-43
2023/04/04 04:27:25;;;;;;;7.60;5.13;;;-1.20;1.00;;;;;;5094471;28;20430;-42
2023/04/04 04:29:50;;;;;;;4.50;3.97;;;-1.20;1.00;;;;;;5094949;28;20300;-43
2023/04/04 04:32:17;;;;;;;7.80;4.43;;;-1.20;1.00;;;;;;5095655;28;20188;-44
2023/04/04 04:34:43;;;;;;;4.77;4.37;;;-1.20;1.00;;;;;;5094249;28;20583;-45
2023/04/04 04:37:08;;;;;;;6.40;4.57;;;-1.20;1.00;;;;;;5091918;28;20441;-43
2023/04/04 04:39:35;;;;;;;6.53;4.27;;;-1.20;1.00;;;;;;5088285;28;20188;-44
2023/04/04 04:42:01;;;;;;;7.40;6.10;;;-1.20;1.00;;;;;;5087103;28;20208;-44
2023/04/04 04:44:26;;;;;;;5.83;5.23;;;-1.20;1.00;;;;;;5088733;28;20425;-42
2023/04/04 04:46:52;;;;;;;4.87;4.37;;;-1.20;1.00;;;;;;5089232;28;20824;-42
2023/04/04 04:49:17;;;;;;;6.70;4.50;;;-1.20;1.00;;;;;;5089323;28;20245;-45
2023/04/04 04:51:43;;;;;;;5.00;4.00;;;-1.20;1.00;;;;;;5091363;28;20259;-43
2023/04/04 04:54:10;;;;;;;4.40;4.00;;;-1.20;1.00;;;;;;5092896;28;20214;-43
2023/04/04 04:56:35;;;;;;;5.20;4.13;;;-1.20;99.90;;;;;;5093895;28;20241;-43
2023/04/04 04:59:01;;;;;;;5.27;4.10;;;-1.20;99.90;;;;;;5092658;28;20641;-43
2023/04/04 05:01:28;;;;;;;4.70;3.77;;;-1.20;99.90;;;;;;5092583;28;20437;-45
2023/04/04 05:03:54;;;;;;;4.20;3.70;;;-1.10;99.90;;;;;;5091850;28;20775;-42
2023/04/04 05:06:20;;;;;;;4.60;3.90;;;-1.10;99.90;;;;;;5091487;28;20452;-46
2023/04/04 05:08:46;;;;;;;4.93;4.30;;;-1.10;99.90;;;;;;5089910;28;20230;-42
2023/04/04 05:11:11;;;;;;;5.13;4.33;;;-1.10;99.90;;;;;;5089316;28;20454;-41
2023/04/04 05:13:37;;;;;;;6.97;4.07;;;-1.00;99.90;;;;;;5089409;28;20185;-43
2023/04/04 05:16:03;;;;;;;5.40;4.33;;;-1.00;99.90;;;;;;5085583;28;20187;-44
2023/04/04 05:18:29;;;;;;;4.57;3.90;;;-1.00;99.90;;;;;;5087155;28;20363;-45
2023/04/04 05:20:55;;;;;;;7.20;4.40;;;-1.00;99.90;;;;;;5086528;28;20581;-42
2023/04/04 05:23:21;;;;;;;6.27;4.77;;;-1.00;99.90;;;;;;5074139;28;20319;-43
2023/04/04 05:25:52;;;;;;;6.63;4.60;;;-0.90;99.90;;;;;;5087439;28;20429;-44
2023/04/04 05:28:20;;;;;;;5.90;4.40;;;-0.90;99.90;;;;;;5086443;28;20728;-43
2023/04/04 05:30:46;;;;;;;4.83;4.33;;;-0.90;67.50;;;;;;5088967;28;20894;-47
2023/04/04 05:33:12;;;;;;;5.00;4.17;;;-0.80;29.00;;;;;;5088460;28;20430;-44
2023/04/04 05:35:37;;;;;;;5.07;4.50;;;-0.80;1.00;;;;;;5090823;28;20184;-44
2023/04/04 05:38:03;;;;;;;8.30;4.67;;;-0.70;1.00;;;;;;5092027;28;20192;-45
2023/04/04 05:40:29;;;;;;;6.13;4.70;;;-0.70;1.00;;;;;;5093200;28;20172;-45
2023/04/04 05:42:57;;;;;;;4.87;4.37;;;-0.70;1.00;;;;;;5097329;28;20499;-44
2023/04/04 05:45:23;;;;;;;5.30;4.67;;;-0.60;1.00;;;;;;5096435;28;20839;-48
2023/04/04 05:47:48;;;;;;;6.07;4.13;;;-0.60;1.00;;;;;;5092765;28;20472;-43
2023/04/04 05:50:14;;;;;;;7.20;4.50;;;-0.60;1.00;;;;;;5091468;28;20237;-43
2023/04/04 05:52:40;;;;;;;5.97;4.40;;;-0.50;1.00;;;;;;5089780;28;20184;-43
2023/04/04 05:55:06;;;;;;;7.97;4.27;;;-0.40;1.00;;;;;;5093837;28;20425;-45
2023/04/04 05:57:31;;;;;;;5.40;4.80;;;-0.40;1.00;;;;;;5094325;28;20181;-43
2023/04/04 05:59:58;;;;;;;6.67;5.47;;;-0.20;1.00;;;;;;5093792;28;20410;-44
2023/04/04 06:02:25;;;;;;;5.50;4.90;;;-0.10;1.00;;;;;;5093762;28;20623;-45
2023/04/04 06:04:51;;;;;;;4.73;4.10;;;0.00;99.90;;;;;;5096679;28;20422;-44
2023/04/04 06:07:17;;;;;;;5.77;4.27;;;0.20;99.90;;;;;;5094614;28;20855;-45
2023/04/04 06:09:43;;;;;;;8.53;4.70;;;0.40;99.90;;;;;;5092190;28;20433;-43
2023/04/04 06:12:09;;;;;;;5.63;4.30;;;0.50;99.90;;;;;;5093775;28;20422;-44
2023/04/04 06:14:35;;;;;;;5.80;4.00;;;0.70;99.90;;;;;;5092115;28;20509;-43
2023/04/04 06:17:01;;;;;;;6.20;5.00;;;1.00;99.90;;;;;;5092486;28;20185;-43
2023/04/04 06:19:27;;;;;;;4.90;3.93;;;1.30;39.20;;;;;;5094883;28;20806;-47
2023/04/04 06:21:52;;;;;;;7.00;4.10;;;1.60;1.00;;;;;;5095659;28;20469;-43
2023/04/04 06:24:18;;;;;;;4.77;4.23;;;1.90;1.00;;;;;;5091977;28;20558;-44
2023/04/04 06:26:44;;;;;;;5.70;3.83;;;2.00;1.00;;;;;;5093331;28;20179;-45
2023/04/04 06:29:09;;;;;;;4.67;2.97;;;2.10;1.00;;;;;;5093106;28;20427;-44
2023/04/04 06:31:35;;;;;;;5.70;4.33;;;2.30;1.00;;;;;;5091496;28;20187;-43
2023/04/04 06:34:01;;;;;;;4.63;3.47;;;2.50;1.00;;;;;;5092677;28;20410;-46
2023/04/04 06:36:27;;;;;;;3.87;3.50;;;2.60;1.00;;;;;;5092038;28;20195;-43
2023/04/04 06:38:53;;;;;;;8.00;4.00;;;2.70;1.00;;;;;;5096920;28;20444;-44
2023/04/04 06:41:18;;;;;;;6.27;3.90;;;2.60;1.00;;;;;;5091253;28;20226;-44
2023/04/04 06:43:45;;;;;;;4.47;3.87;;;2.70;1.00;;;;;;5093778;28;20743;-46
2023/04/04 06:46:11;;;;;;;3.87;3.40;;;2.70;1.00;;;;;;5094171;28;20176;-46
2023/04/04 06:48:37;;;;;;;3.90;3.30;;;2.70;1.00;;;;;;5094318;28;20491;-43
2023/04/04 06:51:06;;;;;;;4.37;3.83;;;2.70;1.00;;;;;;5094197;28;20889;-44
2023/04/04 06:53:33;;;;;;;4.07;3.67;;;2.80;1.00;;;;;;5090930;28;20586;-44
2023/04/04 06:55:59;;;;;;;8.13;3.53;;;2.80;1.00;;;;;;5089899;28;20438;-44
2023/04/04 06:58:24;;;;;;;3.53;3.23;;;2.80;1.00;;;;;;5093066;28;20415;-43
2023/04/04 07:00:50;;;;;;;3.47;3.17;;;2.90;1.00;;;;;;5091573;28;20430;-44
2023/04/04 07:03:15;;;;;;;5.90;3.53;;;3.00;1.00;;;;;;5092105;28;20362;-45
2023/04/04 07:05:41;;;;;;;4.10;3.70;;;3.00;1.00;;;;;;5093179;28;20334;-47
2023/04/04 07:08:07;;;;;;;4.63;3.50;;;3.00;1.00;;;;;;5091126;28;20307;-43
2023/04/04 07:10:33;;;;;;;7.00;3.67;;;3.20;1.00;;;;;;5088862;28;20454;-42
2023/04/04 07:12:59;;;;;;;5.10;3.70;;;3.40;1.00;;;;;;5090968;28;20410;-45
2023/04/04 07:15:25;;;;;;;4.20;3.40;;;3.50;1.00;;;;;;5091637;28;20536;-44
2023/04/04 07:17:50;;;;;;;5.10;3.43;;;3.50;1.00;;;;;;5090188;28;20426;-44
2023/04/04 07:20:16;;;;;;;4.17;2.93;;;3.80;1.00;;;;;;5089582;28;20187;-43
2023/04/04 07:22:43;;;;;;;4.40;4.00;;;3.80;1.00;;;;;;5091187;28;20212;-45
2023/04/04 07:25:09;;;;;;;3.83;3.20;;;3.80;1.00;;;;;;5091722;28;20241;-42
2023/04/04 07:27:35;;;;;;;4.57;4.17;;;3.90;1.00;;;;;;5091964;28;20415;-44
2023/04/04 07:30:01;;;;;;;4.97;3.20;;;4.00;1.00;;;;;;5093086;28;20481;-45
2023/04/04 07:32:28;;;;;;;4.17;3.70;;;4.10;1.00;;;;;;5092859;28;20423;-44
2023/04/04 07:34:54;;;;;;;8.33;3.43;;;4.10;1.00;;;;;;5091586;28;20437;-44
2023/04/04 07:37:20;;;;;;;5.57;3.30;;;4.20;1.00;;;;;;5089849;28;20742;-45
2023/04/04 07:39:48;;;;;;;4.70;2.93;;;4.40;1.00;;;;;;5091163;28;21012;-45
2023/04/04 07:42:15;;;;;;;5.00;3.73;;;4.90;1.00;;;;;;5091876;28;20477;-41
2023/04/04 07:44:40;;;;;;;6.53;2.80;;;6.00;1.00;;;;;;5091358;28;20414;-44
2023/04/04 07:47:07;;;;;;;3.40;2.43;;;7.20;99.90;;;;;;5092419;28;20701;-44
2023/04/04 07:49:32;;;;;;;7.87;2.47;;;8.40;91.60;;;;;;5094185;28;20242;-42
2023/04/04 07:51:58;;;;;;;5.40;2.77;;;9.90;99.90;;;;;;5093104;28;20426;-45
2023/04/04 07:54:24;;;;;;;2.50;2.10;;;11.40;1.00;;;;;;5088046;28;20181;-44
2023/04/04 07:56:50;;;;;;;3.10;2.00;;;12.90;1.00;;;;;;5094717;28;20288;-44
2023/04/04 07:59:16;;;;;;;3.77;2.17;;;14.70;1.00;;;;;;5080069;28;20416;-44
2023/04/04 08:01:41;;;;;;;3.33;2.20;;;16.20;1.00;;;;;;5073884;28;20454;-43
2023/04/04 08:04:07;;;;;;;2.13;1.83;;;17.50;1.00;;;;;;5072354;28;20236;-44
2023/04/04 08:06:33;;;;;;;2.83;1.83;;;18.60;1.00;;;;;;5072245;28;20272;-44
2023/04/04 08:08:58;;;;;;;2.37;1.80;;;19.50;1.00;;;;;;5072498;28;20177;-42
2023/04/04 08:11:24;;;;;;;2.90;2.10;;;20.00;1.00;;;;;;5072285;28;20276;-42
2023/04/04 08:13:51;;;;;;;4.00;2.33;;;20.70;1.00;;;;;;5072029;28;20184;-45
2023/04/04 08:16:17;;;;;;;3.60;2.30;;;21.10;1.00;;;;;;5072584;28;20217;-45
2023/04/04 08:18:43;;;;;;;4.47;2.63;;;21.80;1.00;;;;;;5072289;28;20524;-43
2023/04/04 08:21:09;;;;;;;4.70;3.00;;;22.50;1.00;;;;;;5072447;28;20189;-43
2023/04/04 08:23:34;;;;;;;3.97;2.90;;;22.90;1.00;;;;;;5071988;28;20912;-46
2023/04/04 08:26:00;;;;;;;2.83;2.40;;;23.40;1.00;;;;;;5072909;28;20425;-43
2023/04/04 08:28:26;;;;;;;4.30;2.50;;;23.90;1.00;;;;;;5072520;28;20224;-43
2023/04/04 08:30:53;;;;;;;7.80;4.70;;;24.10;1.00;;;;;;5073406;28;20196;-44
2023/04/04 08:33:20;;;;;;;2.93;2.27;;;24.40;1.00;;;;;;5072067;28;20508;-41
2023/04/04 08:35:45;;;;;;;4.20;2.83;;;24.60;1.00;;;;;;5071965;28;20947;-41
2023/04/04 08:38:11;;;;;;;3.20;2.73;;;24.70;1.00;;;;;;5072551;28;20520;-41
2023/04/04 08:40:37;;;;;;;16.47;3.80;;;25.00;1.00;;;;;;5073300;28;20186;-41
2023/04/04 08:43:04;;;;;;;6.37;2.97;;;25.40;1.00;;;;;;5086492;28;20273;-45
2023/04/04 08:45:32;;;;;;;5.43;2.50;;;26.20;1.00;;;;;;5092173;28;20184;-41
2023/04/04 08:48:00;;;;;;;14.63;3.37;;;26.30;1.00;;;;;;5093641;28;20414;-46
2023/04/04 08:50:27;;;;;;;8.80;3.30;;;26.90;1.00;;;;;;5091310;28;20691;-40
2023/04/04 08:52:53;;;;;;;11.93;3.77;;;27.30;1.00;;;;;;5090050;28;20430;-42
2023/04/04 08:55:19;;;;;;;10.07;3.30;;;27.70;1.00;;;;;;5088170;28;21534;-44
2023/04/04 08:57:45;;;;;;;3.97;2.90;;;27.90;1.00;;;;;;5090852;28;20447;-42
2023/04/04 09:00:12;;;;;;;3.30;3.00;;;28.10;1.00;;;;;;5088983;28;20472;-45
2023/04/04 09:03:06;;;;;;;6.33;3.23;;;28.20;1.00;;;;;;5089622;28;20513;-41
2023/04/04 09:05:33;;;;;;;3.27;2.73;;;28.40;1.00;;;;;;5089187;28;20931;-42
2023/04/04 09:07:58;;;;;;;4.83;3.40;;;28.50;1.00;;;;;;5090296;28;20417;-43
2023/04/04 09:10:24;;;;;;;4.50;3.03;;;28.70;1.00;;;;;;5091509;28;20401;-44
2023/04/04 09:12:50;;;;;;;3.50;3.00;;;29.10;1.00;;;;;;5092068;28;20200;-45
2023/04/04 09:15:16;;;;;;;5.93;2.90;;;29.50;1.00;;;;;;5091543;28;20505;-43
2023/04/04 09:17:41;;;;;;;3.70;3.10;;;29.90;1.00;;;;;;5089546;28;20275;-42
2023/04/04 09:20:35;;;;;;;4.93;3.47;;;29.70;1.00;;;;;;5090216;28;20554;-46
2023/04/04 09:23:03;;;;;;;3.80;2.73;;;29.30;1.00;;;;;;5086620;28;20235;-44
2023/04/04 09:25:29;;;;;;;4.67;2.87;;;28.70;1.00;;;;;;5083855;28;20453;-43
2023/04/04 09:27:56;;;;;;;4.50;3.20;;;28.20;1.00;;;;;;5086472;28;20476;-43
2023/04/04 09:30:22;;;;;;;4.17;2.97;;;28.10;1.00;;;;;;5085906;28;20573;-44
2023/04/04 09:32:48;;;;;;;4.83;2.90;;;28.00;1.00;;;;;;5087603;28;20462;-44
2023/04/04 09:35:14;;;;;;;4.43;3.10;;;27.70;1.00;;;;;;5088186;28;20653;-43
2023/04/04 09:37:41;;;;;;;4.60;3.70;;;27.30;1.00;;;;;;5090753;28;20172;-42
2023/04/04 09:40:09;;;;;;;3.60;2.70;;;26.90;1.00;;;;;;5092022;28;20442;-43
2023/04/04 09:42:34;;;;;;;3.30;3.00;;;26.20;1.00;;;;;;5090118;28;20537;-44
2023/04/04 09:45:01;;;;;;;4.83;2.73;;;26.20;1.00;;;;;;5088993;28;20702;-47
2023/04/04 09:47:29;;;;;;;3.10;2.63;;;26.20;1.00;;;;;;5089532;28;20211;-45
2023/04/04 09:49:59;;;;;;;4.10;3.10;;;26.10;1.00;;;;;;5087851;28;20709;-43
2023/04/04 09:52:25;;;;;;;4.77;3.60;;;26.40;1.00;;;;;;5088544;28;20466;-45
2023/04/04 09:54:57;;;;;;;5.13;3.57;;;26.40;1.00;;;;;;5091659;28;20916;-43
2023/04/04 09:57:33;;;;;;;6.10;3.40;;;26.50;1.00;;;;;;5090459;28;20171;-43
2023/04/04 10:00:00;;;;;;;6.87;4.17;;;26.70;1.00;;;;;;5089207;28;20491;-42
2023/04/04 10:02:26;;;;;;;3.87;3.40;;;26.60;1.00;;;;;;5089537;28;20731;-46
2023/04/04 10:04:53;;;;;;;3.43;3.13;;;26.90;1.00;;;;;;5090448;28;20377;-45
2023/04/04 10:07:20;;;;;;;4.17;3.63;;;27.10;1.00;;;;;;5093252;28;20441;-44
2023/04/04 10:09:49;;;;;;;3.90;3.50;;;27.50;1.00;;;;;;5092756;28;20487;-46
2023/04/04 10:12:16;;;;;;;3.57;3.07;;;28.10;1.00;;;;;;5092737;28;20477;-45
2023/04/04 10:14:41;;;;;;;3.97;3.50;;;29.10;1.00;;;;;;5090991;28;20414;-45
2023/04/04 10:17:12;;;;;;;3.53;3.23;;;30.30;1.00;;;;;;5089907;28;20727;-45
2023/04/04 10:19:38;;;;;;;4.80;4.00;;;31.00;1.00;;;;;;5091672;28;20180;-48
2023/04/04 10:22:08;;;;;;;4.50;3.70;;;31.70;1.00;;;;;;5092226;28;20929;-47
2023/04/04 10:24:34;;;;;;;3.93;3.40;;;32.20;1.00;;;;;;5092099;28;20464;-45
2023/04/04 10:27:03;;;;;;;3.73;3.43;;;32.50;1.00;;;;;;5091472;28;20430;-45
2023/04/04 10:29:29;;;;;;;5.20;3.30;;;33.00;1.00;;;;;;5092311;28;20582;-45
2023/04/04 10:32:04;;;;;;;3.83;3.50;;;34.00;1.00;;;;;;5092308;28;20520;-46
2023/04/04 10:35:00;;;;;;;4.77;4.37;;;34.50;1.00;;;;;;5093436;28;20726;-45
2023/04/04 10:37:27;;;;;;;3.63;3.33;;;34.80;1.00;;;;;;5089358;28;20979;-44
2023/04/04 10:40:09;;;;;;;3.87;3.57;;;35.20;1.00;;;;;;5091188;28;20413;-44
2023/04/04 10:42:39;;;;;;;3.73;3.40;;;35.00;1.00;;;;;;5094307;28;20536;-46
2023/04/04 10:45:07;;;;;;;4.27;3.53;;;34.80;1.00;;;;;;5093140;28;20558;-45
2023/04/04 10:47:33;;;;;;;4.10;3.27;;;35.00;1.00;;;;;;5094313;28;20702;-46
2023/04/04 10:49:59;;;;;;;5.10;3.60;;;34.90;1.00;;;;;;5092826;28;20491;-45
2023/04/04 10:52:27;;;;;;;3.90;3.37;;;35.30;1.00;;;;;;5092324;28;20466;-47
2023/04/04 10:54:56;;;;;;;3.43;3.13;;;35.40;1.00;;;;;;5090707;28;20165;-44
2023/04/04 10:57:22;;;;;;;4.37;3.30;;;35.90;1.00;;;;;;5092001;28;20425;-45
2023/04/04 11:00:11;;;;;;;3.87;3.57;;;36.50;1.00;;;;;;5092164;28;20471;-48
2023/04/04 11:02:56;;;;;;;5.07;3.93;;;36.70;1.00;;;;;;5092362;28;20414;-47
2023/04/04 11:05:29;;;;;;;4.17;3.80;;;37.00;1.00;;;;;;5089582;28;20449;-46
2023/04/04 11:08:01;;;;;;;3.80;3.50;;;37.50;1.00;;;;;;5092614;28;20518;-46
2023/04/04 11:10:31;;;;;;;3.40;3.10;;;37.90;1.00;;;;;;5093376;28;20427;-46
2023/04/04 11:13:06;;;;;;;3.83;3.53;;;38.00;1.00;;;;;;5088663;28;20458;-46
2023/04/04 11:15:46;;;;;;;3.60;3.23;;;38.10;1.00;;;;;;5091532;28;20876;-45
2023/04/04 11:18:12;;;;;;;3.93;3.23;;;38.20;1.00;;;;;;5090944;28;20763;-49
2023/04/04 11:20:44;;;;;;;4.97;3.50;;;38.30;1.00;;;;;;5074526;28;20422;-45
2023/04/04 11:23:09;;;;;;;3.60;3.30;;;38.20;1.00;;;;;;5074162;28;20715;-48
2023/04/04 11:25:39;;;;;;;4.03;3.73;;;38.50;1.00;;;;;;5091696;28;20410;-46
2023/04/04 11:28:32;;;;;;;3.20;3.00;;;38.90;1.00;;;;;;5091473;28;20181;-45
2023/04/04 11:31:16;;;;;;;3.50;3.20;;;38.80;1.00;;;;;;5060233;28;20669;-44
2023/04/04 11:33:55;;;;;;;3.70;3.40;;;39.50;1.00;;;;;;5090859;28;20461;-45
2023/04/04 11:36:40;;;;;;;3.40;3.10;;;39.60;1.00;;;;;;5092624;28;20575;-48
2023/04/04 11:39:27;;;;;;;3.70;3.40;;;39.50;1.00;;;;;;5090055;28;20402;-43
2023/04/04 11:42:12;;;;;;;3.67;3.37;;;39.10;1.00;;;;;;5092175;28;20419;-44
2023/04/04 11:45:00;;;;;;;3.20;2.90;;;39.10;1.00;;;;;;5090545;28;20538;-46
2023/04/04 11:47:26;;;;;;;3.20;2.90;;;38.80;1.00;;;;;;5090857;28;20510;-46
2023/04/04 11:49:52;;;;;;;4.43;3.53;;;39.40;1.00;;;;;;5089814;28;20489;-44
2023/04/04 11:52:18;;;;;;;3.70;3.40;;;39.90;1.00;;;;;;5091111;28;20588;-48
2023/04/04 11:54:46;;;;;;;4.53;4.13;;;40.20;1.00;;;;;;5090461;28;20493;-44
2023/04/04 11:57:19;;;;;;;4.70;2.97;;;40.40;1.00;;;;;;5089042;28;20430;-47
2023/04/04 11:59:48;;;;;;;3.53;3.23;;;40.60;1.00;;;;;;5091054;28;20505;-47
2023/04/04 12:02:22;;;;;;;3.30;3.00;;;40.70;1.00;;;;;;5090231;28;20732;-44
2023/04/04 12:04:50;;;;;;;3.53;3.23;;;40.70;1.00;;;;;;5090000;28;20470;-44
2023/04/04 12:07:16;;;;;;;4.80;3.17;;;40.80;1.00;;;;;;5088979;28;20419;-43
2023/04/04 12:09:42;;;;;;;3.90;3.60;;;40.80;1.00;;;;;;5091827;28;20415;-45
2023/04/04 12:12:15;;;;;;;4.30;3.00;;;41.10;1.00;;;;;;5095177;28;20929;-46
2023/04/04 12:14:41;;;;;;;4.27;3.53;;;41.60;1.00;;;;;;5093281;28;20410;-45
2023/04/04 12:17:07;;;;;;;3.70;3.40;;;41.10;1.00;;;;;;5092056;28;20422;-45
2023/04/04 12:19:43;;;;;;;3.97;3.60;;;41.20;1.00;;;;;;5091840;28;20425;-44
2023/04/04 12:22:08;;;;;;;3.63;3.27;;;41.20;1.00;;;;;;5091885;28;20465;-45
2023/04/04 12:24:35;;;;;;;3.87;3.20;;;41.50;1.00;;;;;;5093112;28;20475;-46
2023/04/04 12:27:02;;;;;;;3.20;2.90;;;41.30;1.00;;;;;;5092248;28;20176;-47
2023/04/04 12:29:28;;;;;;;3.37;3.07;;;41.20;1.00;;;;;;5092010;28;20466;-46
2023/04/04 12:31:54;;;;;;;4.33;2.80;;;40.20;1.00;;;;;;5092956;28;20454;-46
2023/04/04 12:34:27;;;;;;;4.00;3.60;;;40.20;1.00;;;;;;5092627;28;20459;-48
2023/04/04 12:36:55;;;;;;;3.57;3.33;;;40.30;1.00;;;;;;5092283;28;20907;-46
2023/04/04 12:39:22;;;;;;;3.97;3.40;;;40.70;1.00;;;;;;5092333;28;21041;-44
2023/04/04 12:41:57;;;;;;;3.53;3.23;;;40.80;1.00;;;;;;5093625;28;20441;-46
2023/04/04 12:44:36;;;;;;;3.50;3.20;;;41.00;1.00;;;;;;5091853;28;20431;-43
2023/04/04 12:47:04;;;;;;;3.90;3.50;;;41.40;1.00;;;;;;5091380;28;20933;-45
2023/04/04 12:49:31;;;;;;;3.40;3.07;;;41.50;1.00;;;;;;5090940;28;20535;-46
2023/04/04 12:52:03;;;;;;;4.20;3.80;;;41.80;1.00;;;;;;5087288;28;20634;-45
2023/04/04 12:54:31;;;;;;;5.60;4.20;;;41.90;1.00;;;;;;5089208;28;20875;-45
2023/04/04 12:56:57;;;;;;;5.47;4.00;;;42.20;1.00;;;;;;5088973;28;20415;-45
2023/04/04 12:59:27;;;;;;;5.07;4.13;;;42.00;1.00;;;;;;5090039;28;20437;-45